Time;durP1;ratioP1;P1;durP2;ratioP2;P2;SDS_P1;SDS_P2;PMS_P1;PMS_P2;Temp;Humidity;BMP_temperature;BMP_pressure;BME280_temperature;BME280_humidity;BME280_pressure;Samples;Min_cycle;Max_cycle;Signal;HPM_P1;HPM_P2
2022/03/28 00:01:46;;;;;;;57.90;27.97;;;9.40;99.90;;;;;;4070588;29;20176;-91
2022/03/28 00:03:47;;;;;;;47.57;26.13;;;9.50;99.90;;;;;;4054846;29;20173;-91
2022/03/28 00:05:48;;;;;;;60.07;29.53;;;9.60;99.90;;;;;;4070310;29;20204;-90
2022/03/28 00:07:49;;;;;;;51.93;26.70;;;9.60;99.90;;;;;;4070220;29;20216;-91
2022/03/28 00:09:49;;;;;;;49.67;26.27;;;9.90;99.90;;;;;;4070110;29;20184;-91
2022/03/28 00:11:50;;;;;;;46.30;23.53;;;9.60;99.90;;;;;;4054471;29;20173;-91
2022/03/28 00:13:51;;;;;;;51.97;25.80;;;9.50;99.90;;;;;;4070370;29;20180;-91
2022/03/28 00:15:52;;;;;;;48.67;25.03;;;9.60;99.90;;;;;;4070022;29;20695;-91
2022/03/28 00:17:52;;;;;;;49.23;25.80;;;9.60;99.90;;;;;;4054629;29;20199;-90
2022/03/28 00:19:53;;;;;;;48.67;25.73;;;9.60;99.90;;;;;;4070012;29;20176;-90
2022/03/28 00:21:56;;;;;;;47.50;23.77;;;9.60;99.90;;;;;;4070165;29;20188;-90
2022/03/28 00:23:58;;;;;;;44.77;23.50;;;9.60;99.90;;;;;;4054513;29;20177;-92
2022/03/28 00:25:59;;;;;;;49.03;23.93;;;9.60;99.90;;;;;;4054402;29;20197;-91
2022/03/28 00:28:00;;;;;;;45.90;23.77;;;9.60;99.90;;;;;;4054237;29;20236;-90
2022/03/28 00:30:02;;;;;;;41.97;22.40;;;9.60;99.90;;;;;;4054398;29;20173;-92
2022/03/28 00:32:03;;;;;;;47.87;23.23;;;9.60;99.90;;;;;;4069959;29;20180;-91
2022/03/28 00:34:03;;;;;;;43.42;23.63;;;9.60;99.90;;;;;;4069768;29;20176;-91
2022/03/28 00:36:04;;;;;;;45.70;24.07;;;9.50;99.90;;;;;;4054027;29;20303;-91
2022/03/28 00:38:06;;;;;;;46.80;24.53;;;9.50;99.90;;;;;;4070108;29;20180;-92
2022/03/28 00:40:11;;;;;;;46.97;24.03;;;9.20;99.90;;;;;;4070029;29;20183;-90
2022/03/28 00:42:12;;;;;;;44.40;22.57;;;8.90;99.90;;;;;;4054345;29;20213;-91
2022/03/28 00:44:13;;;;;;;47.37;24.03;;;8.80;99.90;;;;;;4070039;29;20180;-90
2022/03/28 00:46:14;;;;;;;42.57;22.60;;;8.70;99.90;;;;;;4054718;29;20208;-91
2022/03/28 00:48:15;;;;;;;47.17;23.67;;;8.80;99.90;;;;;;4069728;29;20232;-91
2022/03/28 00:50:15;;;;;;;46.03;22.37;;;9.10;99.90;;;;;;4053912;29;20677;-91
2022/03/28 00:52:16;;;;;;;47.93;24.67;;;9.20;99.90;;;;;;4069937;29;20172;-91
2022/03/28 00:54:18;;;;;;;46.90;23.60;;;9.40;99.90;;;;;;4068699;29;20280;-90
2022/03/28 00:56:20;;;;;;;44.00;21.27;;;9.40;99.90;;;;;;4053925;29;20213;-91
2022/03/28 00:58:21;;;;;;;41.40;22.30;;;9.70;99.90;;;;;;4053828;29;20184;-90
2022/03/28 01:00:23;;;;;;;41.93;21.97;;;10.30;99.90;;;;;;4053977;29;20189;-91
2022/03/28 01:02:23;;;;;;;45.27;22.27;;;10.20;99.90;;;;;;4069685;29;20181;-90
2022/03/28 01:04:24;;;;;;;43.00;23.50;;;10.00;99.90;;;;;;4053790;29;20248;-90
2022/03/28 01:06:25;;;;;;;46.97;22.60;;;9.60;99.90;;;;;;4069259;29;20211;-91
2022/03/28 01:08:26;;;;;;;41.73;22.93;;;9.20;99.90;;;;;;4069322;29;20237;-90
2022/03/28 01:10:29;;;;;;;41.20;22.17;;;9.10;99.90;;;;;;4053970;29;20184;-91
2022/03/28 01:12:31;;;;;;;43.17;21.67;;;8.90;99.90;;;;;;4053843;29;20217;-90
2022/03/28 01:14:33;;;;;;;38.87;21.30;;;8.70;99.90;;;;;;4069753;29;20328;-91
2022/03/28 01:18:05;;;;;;;38.73;21.30;;;8.70;99.90;;;;;;4053764;29;20193;-91
2022/03/28 01:18:57;;;;;;;39.27;20.90;;;8.70;99.90;;;;;;4069360;29;20184;-91
2022/03/28 01:20:59;;;;;;;41.27;21.03;;;8.80;99.90;;;;;;4069292;29;20218;-91
2022/03/28 01:23:00;;;;;;;48.90;21.80;;;9.00;99.90;;;;;;4053626;29;20645;-91
2022/03/28 01:25:04;;;;;;;50.77;22.20;;;9.00;99.90;;;;;;4068999;29;20239;-91
2022/03/28 01:27:06;;;;;;;46.07;21.07;;;9.00;99.90;;;;;;4053430;29;20196;-90
2022/03/28 01:29:08;;;;;;;41.90;21.60;;;9.10;99.90;;;;;;4053503;29;20181;-90
2022/03/28 01:31:09;;;;;;;41.80;22.10;;;9.10;99.90;;;;;;4053284;29;20180;-91
2022/03/28 01:33:09;;;;;;;44.10;21.13;;;9.10;99.90;;;;;;4053213;29;20173;-91
2022/03/28 01:35:10;;;;;;;37.47;21.50;;;9.10;99.90;;;;;;4068890;29;20227;-91
2022/03/28 01:37:11;;;;;;;39.83;22.73;;;9.50;99.90;;;;;;4068839;29;20192;-90
2022/03/28 01:39:15;;;;;;;36.73;20.40;;;9.90;99.90;;;;;;4068928;29;20184;-91
2022/03/28 01:41:16;;;;;;;39.17;21.57;;;10.10;99.90;;;;;;4053561;29;20172;-91
2022/03/28 01:43:18;;;;;;;43.73;21.63;;;10.40;99.90;;;;;;4069143;29;20715;-90
2022/03/28 01:45:19;;;;;;;32.87;19.63;;;10.00;99.90;;;;;;4053439;29;20313;-91
2022/03/28 01:47:20;;;;;;;37.37;19.80;;;9.60;99.90;;;;;;4053429;29;20228;-91
2022/03/28 01:49:21;;;;;;;37.17;20.27;;;9.30;99.90;;;;;;4069229;29;20203;-90
2022/03/28 01:51:22;;;;;;;35.83;19.30;;;9.10;99.90;;;;;;4053249;29;20181;-90
2022/03/28 01:53:22;;;;;;;36.33;20.43;;;9.00;99.90;;;;;;4068669;29;20174;-91
2022/03/28 01:55:24;;;;;;;37.77;20.73;;;8.90;99.90;;;;;;4053072;29;20243;-90
2022/03/28 01:57:24;;;;;;;38.13;19.83;;;8.70;99.90;;;;;;4068630;29;20196;-91
2022/03/28 01:59:25;;;;;;;37.30;19.43;;;8.70;99.90;;;;;;4053197;29;20177;-90
2022/03/28 02:01:26;;;;;;;38.43;19.47;;;8.70;99.90;;;;;;4068629;29;20656;-92
2022/03/28 02:03:26;;;;;;;40.93;22.40;;;8.70;99.90;;;;;;4068496;29;20176;-91
2022/03/28 02:05:28;;;;;;;40.67;20.67;;;8.80;99.90;;;;;;4068262;29;20196;-91
2022/03/28 02:07:28;;;;;;;32.93;19.20;;;8.60;99.90;;;;;;4068777;29;20211;-90
2022/03/28 02:09:29;;;;;;;36.63;19.90;;;8.50;99.90;;;;;;4053079;29;20211;-90
2022/03/28 02:11:30;;;;;;;34.87;19.23;;;8.50;99.90;;;;;;4052915;29;20314;-91
2022/03/28 02:13:31;;;;;;;35.73;18.87;;;8.50;99.90;;;;;;4068552;29;20263;-91
2022/03/28 02:15:31;;;;;;;35.03;18.50;;;8.50;99.90;;;;;;4052693;29;20213;-90
2022/03/28 02:17:35;;;;;;;34.03;17.90;;;8.50;99.90;;;;;;4068409;29;20629;-91
2022/03/28 02:19:36;;;;;;;38.07;20.13;;;8.50;99.90;;;;;;4068584;29;20184;-90
2022/03/28 02:21:37;;;;;;;37.33;19.50;;;8.60;99.90;;;;;;4052968;29;20180;-90
2022/03/28 02:23:37;;;;;;;36.03;18.80;;;8.70;99.90;;;;;;4068571;29;20562;-90
2022/03/28 02:25:39;;;;;;;35.47;19.57;;;8.70;99.90;;;;;;4068623;29;20180;-91
2022/03/28 02:27:39;;;;;;;34.47;19.60;;;8.70;99.90;;;;;;4052830;29;20761;-91
2022/03/28 02:29:40;;;;;;;34.40;19.40;;;8.70;99.90;;;;;;4068581;29;20172;-90
2022/03/28 02:31:41;;;;;;;41.27;20.43;;;9.10;99.90;;;;;;4068141;29;20669;-91
2022/03/28 02:33:42;;;;;;;32.67;19.50;;;9.40;99.90;;;;;;4068362;29;20642;-90
2022/03/28 02:35:43;;;;;;;37.70;20.33;;;10.10;99.90;;;;;;4052733;29;20262;-90
2022/03/28 02:37:43;;;;;;;35.47;19.80;;;10.50;99.90;;;;;;4068526;29;20172;-90
2022/03/28 02:39:44;;;;;;;36.63;19.80;;;10.30;99.90;;;;;;4068441;29;20183;-90
2022/03/28 02:41:45;;;;;;;36.00;18.47;;;10.40;99.90;;;;;;4068264;29;20266;-91
2022/03/28 02:43:46;;;;;;;36.67;17.73;;;9.90;99.90;;;;;;4068456;29;20184;-89
2022/03/28 02:45:46;;;;;;;33.37;17.93;;;9.50;99.90;;;;;;4052850;29;20169;-90
2022/03/28 02:47:47;;;;;;;31.30;18.00;;;9.30;99.90;;;;;;4068637;29;20179;-90
2022/03/28 02:49:49;;;;;;;33.77;18.07;;;9.10;99.90;;;;;;4068623;29;20176;-91
2022/03/28 02:51:50;;;;;;;35.30;17.53;;;9.10;99.90;;;;;;4052731;29;20176;-91
2022/03/28 02:53:51;;;;;;;37.70;18.23;;;9.00;99.90;;;;;;4068257;29;20176;-91
2022/03/28 02:55:52;;;;;;;40.43;20.17;;;8.80;99.90;;;;;;4067903;29;20262;-91
2022/03/28 02:57:52;;;;;;;36.23;19.23;;;9.30;99.90;;;;;;4068009;29;20180;-91
2022/03/28 02:59:53;;;;;;;35.27;18.73;;;10.00;99.90;;;;;;4052524;29;20177;-90
2022/03/28 03:01:55;;;;;;;40.67;20.17;;;10.40;99.90;;;;;;4068254;29;20685;-90
2022/03/28 03:03:56;;;;;;;38.10;19.97;;;10.20;99.90;;;;;;4068092;29;20645;-91
2022/03/28 03:05:56;;;;;;;36.40;18.67;;;9.80;99.90;;;;;;4052522;29;20244;-91
2022/03/28 03:07:57;;;;;;;35.07;18.27;;;9.40;99.90;;;;;;4068093;29;20634;-91
2022/03/28 03:09:58;;;;;;;30.43;17.70;;;9.00;99.90;;;;;;4068026;29;20215;-90
2022/03/28 03:11:58;;;;;;;41.57;20.13;;;8.80;99.90;;;;;;4052420;29;20177;-91
2022/03/28 03:13:59;;;;;;;34.17;20.00;;;8.80;99.90;;;;;;4068044;29;20267;-91
2022/03/28 03:16:00;;;;;;;36.73;19.97;;;8.80;99.90;;;;;;4067866;29;20220;-91
2022/03/28 03:18:01;;;;;;;40.13;20.53;;;9.00;99.90;;;;;;4054142;29;20181;-91
2022/03/28 03:20:04;;;;;;;36.57;20.13;;;9.00;99.90;;;;;;4071042;29;20238;-91
2022/03/28 03:22:05;;;;;;;35.50;19.87;;;8.90;99.90;;;;;;4070859;29;20259;-90
2022/03/28 03:24:06;;;;;;;36.53;20.83;;;9.00;99.90;;;;;;4055371;29;20264;-90
2022/03/28 03:26:07;;;;;;;39.00;20.17;;;9.10;99.90;;;;;;4070674;29;20321;-90
2022/03/28 03:28:09;;;;;;;38.40;20.10;;;9.30;99.90;;;;;;4071063;29;20183;-90
2022/03/28 03:30:10;;;;;;;36.30;20.57;;;9.40;99.90;;;;;;4070787;29;20172;-91
2022/03/28 03:32:11;;;;;;;41.07;21.33;;;9.40;99.90;;;;;;4055110;29;20173;-91
2022/03/28 03:34:12;;;;;;;40.43;21.00;;;9.00;99.90;;;;;;4054971;29;20700;-90
2022/03/28 03:36:12;;;;;;;42.77;22.37;;;8.70;99.90;;;;;;4086386;29;20279;-91
2022/03/28 03:38:13;;;;;;;40.43;22.77;;;8.50;99.90;;;;;;4054969;29;20265;-91
2022/03/28 03:40:14;;;;;;;43.43;22.83;;;8.30;99.90;;;;;;4070643;29;20634;-91
2022/03/28 03:42:15;;;;;;;45.93;22.83;;;8.30;99.90;;;;;;4070612;29;20701;-91
2022/03/28 03:44:16;;;;;;;42.40;21.63;;;8.30;99.90;;;;;;4055374;29;20216;-91
2022/03/28 03:46:16;;;;;;;37.63;21.40;;;8.40;99.90;;;;;;4054984;29;20196;-91
2022/03/28 03:48:19;;;;;;;34.27;19.43;;;8.30;99.90;;;;;;4086503;29;20269;-90
2022/03/28 03:50:19;;;;;;;39.23;20.40;;;8.30;99.90;;;;;;4054965;29;20173;-91
2022/03/28 03:52:20;;;;;;;44.57;20.03;;;8.40;99.90;;;;;;4070758;29;20227;-90
2022/03/28 03:54:21;;;;;;;43.80;20.87;;;8.60;99.90;;;;;;4070647;29;20180;-91
2022/03/28 03:56:23;;;;;;;42.67;20.13;;;8.90;99.90;;;;;;4070844;29;20357;-91
2022/03/28 03:58:23;;;;;;;40.80;21.87;;;8.80;99.90;;;;;;4055158;29;20181;-91
2022/03/28 04:00:24;;;;;;;43.87;21.47;;;8.70;99.90;;;;;;4086363;29;20236;-92
2022/03/28 04:02:25;;;;;;;43.03;20.60;;;8.60;99.90;;;;;;4054621;29;20177;-90
2022/03/28 04:04:26;;;;;;;42.50;20.00;;;8.50;99.90;;;;;;4070443;29;20176;-91
2022/03/28 04:06:26;;;;;;;41.87;20.17;;;8.60;99.90;;;;;;4070246;29;20196;-91
2022/03/28 04:08:27;;;;;;;44.83;20.50;;;8.80;99.90;;;;;;4055595;29;20177;-91
2022/03/28 04:10:29;;;;;;;35.70;20.67;;;8.80;99.90;;;;;;4054828;29;20646;-90
2022/03/28 04:12:30;;;;;;;38.03;19.43;;;8.80;99.90;;;;;;4070473;29;20184;-92
2022/03/28 04:14:31;;;;;;;35.30;18.63;;;8.70;99.90;;;;;;4055603;29;20185;-91
2022/03/28 04:16:32;;;;;;;34.60;19.13;;;8.80;99.90;;;;;;4070128;29;20243;-91
2022/03/28 04:18:32;;;;;;;34.93;18.00;;;8.50;99.90;;;;;;4070280;29;20262;-91
2022/03/28 04:20:33;;;;;;;37.50;18.53;;;8.20;99.90;;;;;;4070496;29;20271;-91
2022/03/28 04:22:34;;;;;;;37.73;19.70;;;7.80;99.90;;;;;;4054716;29;20184;-90
2022/03/28 04:24:35;;;;;;;39.93;20.00;;;7.70;99.90;;;;;;4054524;29;20185;-91
2022/03/28 04:26:35;;;;;;;37.70;19.27;;;7.70;99.90;;;;;;4085736;29;20688;-90
2022/03/28 04:28:37;;;;;;;47.07;20.60;;;7.60;99.90;;;;;;4069869;29;20701;-91
2022/03/28 04:30:38;;;;;;;39.33;20.40;;;7.60;99.90;;;;;;4070202;29;20673;-90
2022/03/28 04:32:39;;;;;;;37.27;20.27;;;7.60;99.90;;;;;;4054460;29;20224;-91
2022/03/28 04:34:40;;;;;;;38.90;20.33;;;7.60;99.90;;;;;;4070098;29;20218;-90
2022/03/28 04:36:41;;;;;;;36.37;20.63;;;7.40;99.90;;;;;;4069836;29;20208;-91
2022/03/28 04:38:42;;;;;;;43.10;22.43;;;7.50;99.90;;;;;;4054742;29;20343;-91
2022/03/28 04:40:43;;;;;;;43.57;21.70;;;7.60;99.90;;;;;;4070177;29;20649;-90
2022/03/28 04:42:44;;;;;;;43.50;22.67;;;7.50;99.90;;;;;;4069854;29;20231;-92
2022/03/28 04:44:45;;;;;;;46.23;22.50;;;7.50;99.90;;;;;;4054349;29;20212;-91
2022/03/28 04:46:46;;;;;;;48.83;21.70;;;7.30;99.90;;;;;;4069921;29;20277;-91
2022/03/28 04:48:48;;;;;;;48.03;21.90;;;6.90;99.90;;;;;;4070094;29;20249;-91
2022/03/28 04:50:50;;;;;;;43.57;22.57;;;6.80;99.90;;;;;;4069649;29;20176;-91
2022/03/28 04:52:50;;;;;;;41.20;21.97;;;6.90;99.90;;;;;;4069388;29;20688;-91
2022/03/28 04:54:52;;;;;;;42.97;22.40;;;7.00;99.90;;;;;;4069630;29;20224;-91
2022/03/28 04:56:53;;;;;;;43.77;21.67;;;7.10;99.90;;;;;;4069784;29;20212;-91
2022/03/28 04:58:53;;;;;;;38.10;20.67;;;7.10;99.90;;;;;;4069678;29;20168;-91
2022/03/28 05:00:54;;;;;;;41.60;20.87;;;6.90;99.90;;;;;;4054295;29;20209;-91
2022/03/28 05:02:55;;;;;;;45.27;21.63;;;6.80;99.90;;;;;;4069676;29;20183;-91
2022/03/28 05:04:55;;;;;;;40.13;21.30;;;6.80;99.90;;;;;;4069804;29;20609;-91
2022/03/28 05:06:56;;;;;;;40.53;20.63;;;6.70;99.90;;;;;;4053910;29;20631;-90
2022/03/28 05:08:57;;;;;;;48.57;22.40;;;6.80;99.90;;;;;;4069431;29;20220;-91
2022/03/28 05:10:57;;;;;;;46.23;20.77;;;6.90;99.90;;;;;;4069302;29;20274;-92
2022/03/28 05:12:58;;;;;;;39.43;21.27;;;6.90;99.90;;;;;;4053653;29;20593;-91
2022/03/28 05:14:59;;;;;;;43.83;19.07;;;6.90;99.90;;;;;;4053574;29;20682;-91
2022/03/28 05:17:00;;;;;;;42.93;19.97;;;6.80;99.90;;;;;;4084752;29;20196;-91
2022/03/28 05:19:01;;;;;;;46.50;19.33;;;6.40;99.90;;;;;;4053583;29;20176;-92
2022/03/28 05:21:03;;;;;;;43.47;21.77;;;6.00;99.90;;;;;;4071114;29;20168;-91
2022/03/28 05:23:03;;;;;;;40.80;19.97;;;6.20;99.90;;;;;;4069445;29;20268;-91
2022/03/28 05:25:05;;;;;;;44.63;20.97;;;6.40;99.90;;;;;;4054114;29;20184;-91
2022/03/28 05:27:06;;;;;;;44.03;20.27;;;6.50;99.90;;;;;;4053482;29;20207;-92
2022/03/28 05:29:07;;;;;;;43.50;19.27;;;6.40;99.90;;;;;;4069261;29;20661;-91
2022/03/28 05:31:08;;;;;;;40.30;20.60;;;6.50;99.90;;;;;;4053780;29;20188;-90
2022/03/28 05:33:09;;;;;;;43.67;21.50;;;6.70;99.90;;;;;;4069179;29;20664;-91
2022/03/28 05:35:10;;;;;;;43.23;20.80;;;6.80;99.90;;;;;;4069474;29;20223;-91
2022/03/28 05:37:13;;;;;;;44.63;20.87;;;6.90;99.90;;;;;;4072231;29;20235;-90
2022/03/28 05:39:14;;;;;;;42.17;22.00;;;6.80;99.90;;;;;;4068414;29;20175;-90
2022/03/28 05:41:16;;;;;;;49.17;20.60;;;6.70;99.90;;;;;;4071793;29;20153;-91
2022/03/28 05:43:17;;;;;;;49.50;21.40;;;6.60;99.90;;;;;;4053301;29;20188;-90
2022/03/28 05:45:18;;;;;;;47.33;21.27;;;6.60;99.90;;;;;;4068981;29;20185;-91
2022/03/28 05:47:19;;;;;;;42.03;19.83;;;6.70;99.90;;;;;;4054026;29;20585;-90
2022/03/28 05:49:20;;;;;;;65.67;22.07;;;6.60;99.90;;;;;;4068719;29;20172;-91
2022/03/28 05:51:21;;;;;;;52.33;21.80;;;6.40;99.90;;;;;;4068960;29;20183;-91
2022/03/28 05:53:22;;;;;;;50.47;20.87;;;6.30;99.90;;;;;;4053391;29;20637;-90
2022/03/28 05:55:23;;;;;;;55.73;22.20;;;6.40;99.90;;;;;;4069732;29;20208;-91
2022/03/28 05:57:23;;;;;;;55.13;20.37;;;6.50;99.90;;;;;;4069488;29;20191;-92
2022/03/28 05:59:24;;;;;;;42.37;20.17;;;6.60;99.90;;;;;;4069052;29;20179;-91
2022/03/28 06:01:25;;;;;;;45.03;20.70;;;6.50;99.90;;;;;;4068972;29;20637;-91
2022/03/28 06:03:27;;;;;;;48.17;21.17;;;6.70;99.90;;;;;;4053937;29;20656;-91
2022/03/28 06:05:27;;;;;;;51.30;21.47;;;6.90;99.90;;;;;;4055106;29;20261;-91
2022/03/28 06:07:28;;;;;;;50.73;22.17;;;6.90;99.90;;;;;;4069283;29;20275;-91
2022/03/28 06:09:29;;;;;;;49.77;22.20;;;7.10;99.90;;;;;;4052906;29;20181;-92
2022/03/28 06:11:30;;;;;;;50.97;22.30;;;7.10;99.90;;;;;;4068863;29;20244;-91
2022/03/28 06:13:31;;;;;;;49.17;23.17;;;7.30;99.90;;;;;;4069311;29;20188;-92
2022/03/28 06:15:36;;;;;;;43.07;22.23;;;7.40;99.90;;;;;;4053131;29;20212;-92
2022/03/28 06:17:38;;;;;;;46.27;22.43;;;7.50;99.90;;;;;;4069814;29;20172;-92
2022/03/28 06:19:38;;;;;;;43.53;22.00;;;7.60;99.90;;;;;;4068306;29;20183;-91
2022/03/28 06:21:40;;;;;;;51.23;21.60;;;7.60;99.90;;;;;;4068809;29;20658;-92
2022/03/28 06:23:40;;;;;;;55.40;22.17;;;7.70;99.90;;;;;;4068943;29;20184;-91
2022/03/28 06:25:41;;;;;;;48.47;23.53;;;7.80;99.90;;;;;;4053229;29;20297;-91
2022/03/28 06:27:42;;;;;;;51.00;25.83;;;8.00;99.90;;;;;;4068639;29;20179;-91
2022/03/28 06:29:42;;;;;;;44.77;23.33;;;8.00;99.90;;;;;;4068674;29;20183;-91
2022/03/28 06:31:43;;;;;;;54.97;24.37;;;8.10;99.90;;;;;;4068461;29;20223;-92
2022/03/28 06:33:44;;;;;;;51.40;23.57;;;8.20;99.90;;;;;;4053113;29;20180;-91
2022/03/28 06:35:45;;;;;;;39.80;21.50;;;8.50;99.90;;;;;;4053852;29;20221;-92
2022/03/28 06:37:50;;;;;;;41.50;23.07;;;8.50;99.90;;;;;;4084477;29;20176;-91
2022/03/28 06:39:51;;;;;;;47.37;22.60;;;8.60;99.90;;;;;;4068783;29;20172;-92
2022/03/28 06:41:51;;;;;;;60.73;25.10;;;8.60;99.90;;;;;;4053484;29;20181;-92
2022/03/28 06:43:53;;;;;;;80.50;25.20;;;8.80;99.90;;;;;;4084307;29;20180;-92
2022/03/28 06:45:54;;;;;;;59.40;24.30;;;8.90;99.90;;;;;;4054161;29;20211;-92
2022/03/28 06:47:56;;;;;;;60.13;24.33;;;9.10;99.90;;;;;;4070498;29;20207;-92
2022/03/28 06:49:56;;;;;;;47.47;23.63;;;9.20;99.90;;;;;;4053082;29;20184;-91
2022/03/28 06:51:57;;;;;;;48.27;24.67;;;9.30;99.90;;;;;;4068915;29;20313;-91
2022/03/28 06:53:58;;;;;;;57.00;27.77;;;9.50;99.90;;;;;;4071452;29;20176;-91
2022/03/28 06:56:01;;;;;;;54.95;27.10;;;9.60;99.90;;;;;;4071154;29;20239;-92
2022/03/28 06:58:02;;;;;;;46.97;22.97;;;9.80;99.90;;;;;;4055457;29;20181;-91
2022/03/28 07:00:10;;;;;;;44.00;21.75;;;9.90;99.90;;;;;;4071769;29;20270;-91
2022/03/28 07:02:11;;;;;;;40.90;20.90;;;10.10;99.90;;;;;;4071426;29;20180;-91
2022/03/28 07:04:12;;;;;;;42.80;19.30;;;10.20;99.90;;;;;;4055795;29;20679;-91
2022/03/28 07:06:13;;;;;;;36.97;19.20;;;10.30;99.90;;;;;;4055483;29;20211;-91
2022/03/28 07:08:14;;;;;;;37.40;20.45;;;10.50;99.90;;;;;;4071532;29;20176;-92
2022/03/28 07:10:18;;;;;;;43.13;19.95;;;10.50;99.90;;;;;;4055879;29;20212;-92
2022/03/28 07:12:19;;;;;;;38.92;19.23;;;10.50;99.90;;;;;;4055677;29;20180;-91
2022/03/28 07:14:19;;;;;;;45.72;20.20;;;10.70;99.90;;;;;;4071251;29;20176;-92
2022/03/28 07:16:20;;;;;;;36.05;19.48;;;11.00;99.90;;;;;;4055511;29;20279;-93
2022/03/28 07:18:22;;;;;;;35.33;19.10;;;11.30;99.90;;;;;;4071260;29;20180;-92
2022/03/28 07:20:28;;;;;;;41.67;19.00;;;12.30;99.90;;;;;;4071532;29;20715;-93
2022/03/28 07:22:28;;;;;;;34.53;17.50;;;13.30;99.90;;;;;;4055135;29;20184;-92
2022/03/28 07:24:29;;;;;;;40.75;18.00;;;14.50;99.90;;;;;;4072589;29;20169;-92
2022/03/28 07:26:30;;;;;;;30.55;17.42;;;15.60;99.90;;;;;;4070533;29;20215;-91
2022/03/28 07:28:31;;;;;;;31.70;17.95;;;16.80;99.90;;;;;;4070813;29;20204;-91
2022/03/28 07:30:31;;;;;;;30.98;17.15;;;17.60;99.90;;;;;;4070850;29;20184;-92
2022/03/28 07:32:32;;;;;;;37.65;17.52;;;18.10;99.90;;;;;;4070776;29;20304;-93
2022/03/28 07:34:34;;;;;;;28.77;15.70;;;18.20;99.90;;;;;;4055289;29;20196;-91
2022/03/28 07:36:36;;;;;;;36.38;17.17;;;19.00;99.90;;;;;;4055069;29;20256;-92
2022/03/28 07:38:37;;;;;;;29.63;16.65;;;19.20;99.90;;;;;;4055241;29;20180;-92
2022/03/28 07:40:40;;;;;;;32.85;16.05;;;19.80;99.90;;;;;;4055407;29;20248;-93
2022/03/28 07:42:41;;;;;;;31.00;16.35;;;19.80;99.90;;;;;;4054950;29;20173;-92
2022/03/28 07:44:42;;;;;;;30.48;17.10;;;20.10;99.90;;;;;;4055166;29;20184;-93
2022/03/28 07:46:44;;;;;;;34.15;15.93;;;20.20;99.90;;;;;;4070688;29;20676;-92
2022/03/28 07:48:45;;;;;;;29.92;16.60;;;20.50;99.90;;;;;;4071136;29;20173;-92
2022/03/28 07:50:46;;;;;;;34.13;17.30;;;21.00;99.90;;;;;;4054825;29;20188;-92
2022/03/28 07:52:50;;;;;;;30.67;17.42;;;21.10;99.90;;;;;;4054774;29;20264;-92
2022/03/28 07:54:51;;;;;;;30.95;17.42;;;21.90;99.90;;;;;;4071025;29;20729;-91
2022/03/28 07:56:52;;;;;;;29.92;17.60;;;22.40;99.90;;;;;;4055962;29;20224;-92
2022/03/28 07:58:53;;;;;;;34.47;16.80;;;22.70;99.90;;;;;;4055160;29;20173;-93
2022/03/28 08:00:54;;;;;;;28.00;16.88;;;22.80;99.90;;;;;;4086622;29;20167;-92
2022/03/28 08:02:55;;;;;;;31.58;18.30;;;22.80;99.90;;;;;;4054322;29;20178;-92
2022/03/28 08:04:56;;;;;;;34.88;18.25;;;23.30;99.90;;;;;;4054819;29;20173;-93
2022/03/28 08:06:57;;;;;;;34.15;18.08;;;23.50;99.90;;;;;;4070297;29;20527;-90
2022/03/28 08:08:57;;;;;;;41.97;19.85;;;23.60;99.90;;;;;;4054635;29;20183;-90
2022/03/28 08:10:59;;;;;;;41.47;19.73;;;23.50;99.90;;;;;;4072795;29;20180;-90
2022/03/28 08:13:01;;;;;;;39.17;19.20;;;23.50;99.90;;;;;;4063159;29;20542;-90
2022/03/28 08:15:01;;;;;;;41.08;18.23;;;23.50;99.90;;;;;;4087179;29;20164;-90
2022/03/28 08:17:03;;;;;;;33.72;17.95;;;23.90;99.90;;;;;;4090697;29;20260;-91
2022/03/28 08:19:04;;;;;;;34.05;18.00;;;23.70;99.90;;;;;;4054689;29;20726;-91
2022/03/28 08:21:05;;;;;;;28.70;17.50;;;23.40;99.90;;;;;;4070160;29;20184;-92
2022/03/28 08:23:07;;;;;;;33.47;18.52;;;23.70;99.90;;;;;;4070109;29;20183;-91
2022/03/28 08:25:08;;;;;;;28.63;18.08;;;23.80;99.90;;;;;;4054456;29;20260;-92
2022/03/28 08:27:08;;;;;;;32.45;17.45;;;23.70;99.90;;;;;;4069850;29;20772;-91
2022/03/28 08:29:09;;;;;;;37.70;18.08;;;23.80;99.90;;;;;;4055186;29;20690;-92
2022/03/28 08:31:11;;;;;;;30.13;17.73;;;23.20;99.90;;;;;;4085878;29;20182;-91
2022/03/28 08:33:12;;;;;;;35.03;18.45;;;23.60;99.90;;;;;;4055056;29;20264;-91
2022/03/28 08:35:13;;;;;;;26.33;18.42;;;23.90;99.90;;;;;;4070152;29;20752;-90
2022/03/28 08:37:16;;;;;;;28.23;17.88;;;24.20;99.90;;;;;;4054604;29;20219;-90
2022/03/28 08:39:17;;;;;;;35.42;19.45;;;24.10;99.90;;;;;;4069953;29;20218;-91
2022/03/28 08:41:19;;;;;;;29.05;18.00;;;22.70;99.90;;;;;;4054543;29;20629;-91
2022/03/28 08:43:21;;;;;;;32.80;18.48;;;22.00;99.90;;;;;;4069843;29;20176;-91
2022/03/28 08:45:22;;;;;;;29.85;18.65;;;20.90;99.90;;;;;;4054387;29;20173;-90
2022/03/28 08:47:24;;;;;;;34.42;19.13;;;20.00;99.90;;;;;;4069754;29;20235;-90
2022/03/28 08:49:25;;;;;;;27.77;17.98;;;19.30;99.90;;;;;;4054383;29;20177;-91
2022/03/28 08:51:29;;;;;;;27.77;18.02;;;19.10;99.90;;;;;;4069684;29;20184;-93
2022/03/28 08:53:30;;;;;;;32.45;17.40;;;18.30;99.90;;;;;;4054499;29;20168;-92
2022/03/28 08:55:31;;;;;;;27.92;16.15;;;18.60;99.90;;;;;;4069540;29;20215;-92
2022/03/28 08:57:32;;;;;;;24.00;16.40;;;19.10;99.90;;;;;;4070342;29;20207;-94
2022/03/28 08:59:33;;;;;;;32.05;18.33;;;18.70;99.90;;;;;;4069625;29;20188;-92
2022/03/28 09:01:34;;;;;;;28.88;17.85;;;18.00;99.90;;;;;;4053996;29;20184;-91
2022/03/28 09:03:39;;;;;;;32.83;18.33;;;18.40;99.90;;;;;;4055263;29;20189;-92
2022/03/28 09:05:41;;;;;;;30.17;18.50;;;19.20;99.90;;;;;;4053833;29;20172;-93
2022/03/28 09:07:43;;;;;;;31.67;18.77;;;19.00;99.90;;;;;;4053761;29;20705;-91
2022/03/28 09:09:44;;;;;;;27.67;18.70;;;19.80;99.90;;;;;;4054080;29;20177;-92
2022/03/28 09:11:53;;;;;;;32.28;18.15;;;19.90;99.90;;;;;;4053842;29;20177;-92
2022/03/28 09:13:54;;;;;;;36.13;19.15;;;19.90;99.90;;;;;;4069644;29;20172;-91
2022/03/28 09:15:57;;;;;;;33.72;18.85;;;19.40;99.90;;;;;;4068479;29;20262;-92
2022/03/28 09:17:58;;;;;;;28.95;18.08;;;19.70;99.90;;;;;;4053656;29;20169;-93
2022/03/28 09:20:03;;;;;;;37.63;20.40;;;20.30;99.90;;;;;;4053691;29;20563;-91
2022/03/28 09:22:13;;;;;;;43.63;20.30;;;20.20;99.90;;;;;;4053460;29;20180;-92
2022/03/28 09:24:13;;;;;;;36.28;20.38;;;20.10;99.90;;;;;;4053882;29;20300;-91
2022/03/28 09:26:20;;;;;;;61.47;19.95;;;19.60;99.90;;;;;;4053591;29;20189;-92
2022/03/28 09:28:47;;;;;;;34.58;18.35;;;20.00;99.90;;;;;;4053466;29;20184;-92
2022/03/28 09:30:48;;;;;;;31.83;18.63;;;18.50;99.90;;;;;;4053533;29;20267;-92
2022/03/28 09:32:52;;;;;;;35.75;19.45;;;18.20;99.90;;;;;;4053340;29;20181;-93
2022/03/28 09:35:10;;;;;;;31.35;18.60;;;18.30;99.90;;;;;;4054393;29;20207;-92
2022/03/28 09:37:15;;;;;;;35.75;19.73;;;18.60;99.90;;;;;;4053492;29;20201;-92
2022/03/28 09:39:17;;;;;;;38.83;18.73;;;18.80;99.90;;;;;;4053389;29;20168;-92
2022/03/28 09:41:18;;;;;;;33.05;19.25;;;18.90;99.90;;;;;;4054119;29;20192;-92
2022/03/28 09:43:21;;;;;;;33.85;18.65;;;19.30;99.90;;;;;;4069070;29;20267;-92
2022/03/28 09:45:25;;;;;;;33.75;18.30;;;18.90;99.90;;;;;;4053347;29;20181;-92
2022/03/28 09:47:26;;;;;;;35.60;20.30;;;19.30;99.90;;;;;;4053029;29;20188;-92
2022/03/28 09:49:26;;;;;;;27.55;18.00;;;20.30;99.90;;;;;;4068964;29;20264;-92
2022/03/28 09:51:29;;;;;;;28.40;18.75;;;20.10;99.90;;;;;;4069101;29;20206;-91
2022/03/28 09:53:36;;;;;;;31.17;18.80;;;19.30;99.90;;;;;;4053529;29;20213;-91
2022/03/28 09:56:10;;;;;;;32.30;18.73;;;19.10;99.90;;;;;;4053266;29;20304;-93
2022/03/28 09:58:31;;;;;;;30.55;18.42;;;20.40;99.90;;;;;;4062850;29;20243;-91
2022/03/28 10:00:32;;;;;;;28.30;18.05;;;20.60;99.90;;;;;;4053525;29;20184;-93
2022/03/28 10:02:35;;;;;;;27.70;17.48;;;19.60;99.90;;;;;;4052979;29;20606;-91
2022/03/28 10:04:36;;;;;;;29.95;17.80;;;19.20;99.90;;;;;;4053030;29;20204;-92
2022/03/28 10:06:38;;;;;;;30.27;18.75;;;18.60;99.90;;;;;;4069161;29;20252;-92
2022/03/28 10:08:39;;;;;;;27.50;18.38;;;18.00;99.90;;;;;;4053688;29;20169;-92
2022/03/28 10:10:41;;;;;;;28.05;17.58;;;18.00;99.90;;;;;;4068617;29;20184;-92
2022/03/28 10:12:42;;;;;;;29.05;18.17;;;18.20;99.90;;;;;;4069288;29;20175;-92
2022/03/28 10:14:44;;;;;;;29.75;18.73;;;18.20;99.90;;;;;;4053171;29;20188;-91
2022/03/28 10:16:47;;;;;;;36.80;18.45;;;17.80;99.90;;;;;;4052669;29;20224;-91
2022/03/28 10:18:50;;;;;;;31.42;17.75;;;18.40;99.90;;;;;;4052978;29;20188;-91
2022/03/28 10:20:54;;;;;;;27.90;18.25;;;18.50;99.90;;;;;;4068679;29;20514;-93
2022/03/28 10:22:56;;;;;;;31.13;19.13;;;18.20;99.90;;;;;;4068524;29;20184;-92